Time;durP1;ratioP1;P1;durP2;ratioP2;P2;SDS_P1;SDS_P2;PMS_P1;PMS_P2;Temp;Humidity;BMP_temperature;BMP_pressure;BME280_temperature;BME280_humidity;BME280_pressure;Samples;Min_cycle;Max_cycle;Signal;HPM_P1;HPM_P2
2023/01/14 00:01:52;;;;;;;;;;;;;;;13.91;nan;100914.81;5025408;28;19955;-34
2023/01/14 00:04:18;;;;;;;;;;;;;;;13.94;nan;100921.53;5023656;28;19928;-36
2023/01/14 00:06:43;;;;;;;;;;;;;;;13.93;nan;100925.31;5021752;28;20375;-34
2023/01/14 00:09:13;;;;;;;;;;;;;;;13.92;nan;100924.50;5020513;28;20358;-35
2023/01/14 00:11:49;;;;;;;;;;;;;;;13.89;nan;100933.13;5021349;28;20338;-35
2023/01/14 00:14:14;;;;;;;;;;;;;;;13.87;nan;100922.63;5026509;28;19925;-34
2023/01/14 00:16:40;;;;;;;;;;;;;;;13.86;nan;100928.28;5023498;28;20283;-34
2023/01/14 00:19:05;;;;;;;;;;;;;;;13.87;nan;100929.91;5026004;28;19917;-34
2023/01/14 00:21:31;;;;;;;;;;;;;;;13.93;nan;100941.47;5025383;28;20290;-34
2023/01/14 00:23:57;;;;;;;;;;;;;;;13.90;nan;100957.09;5028304;28;20437;-34
2023/01/14 00:26:22;;;;;;;;;;;;;;;13.88;nan;100956.56;5026207;28;20395;-34
2023/01/14 00:28:49;;;;;;;;;;;;;;;13.81;nan;100947.09;5021607;28;20370;-35
2023/01/14 00:31:16;;;;;;;;;;;;;;;13.73;nan;100948.41;5024938;28;20387;-34
2023/01/14 00:33:42;;;;;;;;;;;;;;;13.66;nan;100941.69;5021515;28;19917;-34
2023/01/14 00:36:09;;;;;;;;;;;;;;;13.65;nan;100940.88;5020353;28;20414;-35
2023/01/14 00:38:35;;;;;;;;;;;;;;;13.62;nan;100941.38;5023427;28;20502;-34
2023/01/14 00:41:06;;;;;;;;;;;;;;;13.68;nan;100955.69;5026518;28;20382;-34
2023/01/14 00:43:31;;;;;;;;;;;;;;;13.69;nan;100954.59;5023940;28;19929;-34
2023/01/14 00:45:57;;;;;;;;;;;;;;;13.74;nan;100962.69;5025110;28;19928;-35
2023/01/14 00:48:22;;;;;;;;;;;;;;;13.69;nan;100949.22;5023819;28;19923;-34
2023/01/14 00:50:47;;;;;;;;;;;;;;;13.65;nan;100945.44;5028010;28;19928;-35
2023/01/14 00:53:13;;;;;;;;;;;;;;;13.63;nan;100955.63;5026756;28;19917;-34
2023/01/14 00:55:38;;;;;;;;;;;;;;;13.59;nan;100949.97;5029433;28;20164;-35
2023/01/14 00:58:03;;;;;;;;;;;;;;;13.61;nan;100953.22;5026469;28;20371;-34
2023/01/14 01:00:29;;;;;;;;;;;;;;;13.53;nan;100946.47;5022195;28;20015;-35
2023/01/14 01:02:54;;;;;;;;;;;;;;;13.50;nan;100949.69;5024562;28;19932;-34
2023/01/14 01:05:20;;;;;;;;;;;;;;;13.47;nan;100946.72;5025125;28;19927;-34
2023/01/14 01:07:45;;;;;;;;;;;;;;;13.46;nan;100951.25;5028117;28;19925;-34
2023/01/14 01:10:11;;;;;;;;;;;;;;;13.48;nan;100957.22;5023338;28;19924;-34
2023/01/14 01:12:36;;;;;;;;;;;;;;;13.61;nan;100969.38;5023957;28;19936;-34
2023/01/14 01:15:02;;;;;;;;;;;;;;;13.65;nan;100966.97;5028706;28;19956;-34
2023/01/14 01:17:28;;;;;;;;;;;;;;;13.59;nan;100980.41;5026872;28;19917;-34
2023/01/14 01:19:54;;;;;;;;;;;;;;;13.57;nan;100996.00;5023606;28;19920;-34
2023/01/14 01:22:19;;;;;;;;;;;;;;;13.43;nan;100972.50;5026622;28;19990;-35
2023/01/14 01:24:45;;;;;;;;;;;;;;;13.51;nan;100980.09;5027597;28;20386;-35
2023/01/14 01:27:10;;;;;;;;;;;;;;;13.54;nan;100976.88;5023028;28;20410;-36
2023/01/14 01:29:35;;;;;;;;;;;;;;;13.56;nan;100983.63;5028548;28;19921;-34
2023/01/14 01:32:01;;;;;;;;;;;;;;;13.66;nan;100984.75;5025065;28;19970;-35
2023/01/14 01:34:26;;;;;;;;;;;;;;;13.70;nan;100988.53;5027316;28;20156;-35
2023/01/14 01:36:51;;;;;;;;;;;;;;;13.67;nan;100989.88;5025751;28;21261;-34
2023/01/14 01:39:17;;;;;;;;;;;;;;;13.68;nan;101002.25;5024747;28;19928;-34
2023/01/14 01:41:42;;;;;;;;;;;;;;;13.72;nan;101011.44;5022328;28;19917;-34
2023/01/14 01:44:27;;;;;;;;;;;;;;;13.75;nan;101002.00;5026483;28;19972;-34
2023/01/14 01:46:53;;;;;;;;;;;;;;;13.80;nan;101002.84;5023883;28;20064;-34
2023/01/14 01:49:21;;;;;;;;;;;;;;;13.78;nan;101002.28;5025335;28;21035;-34
2023/01/14 01:51:53;;;;;;;;;;;;;;;13.83;nan;101009.59;5026356;28;19917;-35
2023/01/14 01:54:20;;;;;;;;;;;;;;;13.85;nan;101010.97;5028352;28;20473;-35
2023/01/14 01:56:46;;;;;;;;;;;;;;;13.85;nan;101012.84;5026370;28;19971;-35
2023/01/14 01:59:14;;;;;;;;;;;;;;;13.87;nan;101003.44;5028438;28;20206;-35
2023/01/14 02:01:40;;;;;;;;;;;;;;;13.85;nan;101016.34;5043176;22;20414;-35
2023/01/14 02:04:05;;;;;;;;;;;;;;;13.83;nan;101018.50;5028425;28;19921;-35
2023/01/14 02:06:30;;;;;;;;;;;;;;;13.91;nan;101039.53;5024872;28;19966;-35
2023/01/14 02:08:56;;;;;;;;;;;;;;;13.88;nan;101037.38;5024818;28;20294;-37
2023/01/14 02:11:24;;;;;;;;;;;;;;;13.92;nan;101026.88;5019675;28;19925;-36
2023/01/14 02:14:10;;;;;;;;;;;;;;;13.89;nan;101046.25;5028304;28;20311;-35
2023/01/14 02:16:46;;;;;;;;;;;;;;;13.83;nan;101033.84;5028254;28;19917;-35
2023/01/14 02:19:25;;;;;;;;;;;;;;;13.90;nan;101051.38;5022879;28;20410;-36
2023/01/14 02:22:13;;;;;;;;;;;;;;;13.92;nan;101045.72;5019381;28;19939;-35
2023/01/14 02:24:57;;;;;;;;;;;;;;;13.88;nan;101052.72;5019630;28;20302;-35
2023/01/14 02:27:23;;;;;;;;;;;;;;;13.91;nan;101060.25;5025488;28;19932;-35
2023/01/14 02:29:57;;;;;;;;;;;;;;;13.91;nan;101062.97;5023908;28;19921;-36
2023/01/14 02:32:22;;;;;;;;;;;;;;;13.96;nan;101067.56;5024300;28;20548;-37
2023/01/14 02:34:54;;;;;;;;;;;;;;;13.96;nan;101071.06;5025483;28;19917;-36
2023/01/14 02:37:27;;;;;;;;;;;;;;;13.98;nan;101068.91;5025907;28;19960;-37
2023/01/14 02:40:12;;;;;;;;;;;;;;;14.02;nan;101063.81;5022807;28;20431;-35
2023/01/14 02:45:24;;;;;;;;;;;;;;;14.05;nan;101076.75;5028396;28;19927;-35
2023/01/14 02:47:50;;;;;;;;;;;;;;;14.00;nan;101077.53;5022678;28;19925;-36
2023/01/14 02:50:17;;;;;;;;;;;;;;;14.10;nan;101082.97;5027452;28;19980;-36
2023/01/14 02:52:42;;;;;;;;;;;;;;;14.07;nan;101082.69;5025544;28;20478;-35
2023/01/14 02:55:27;;;;;;;;;;;;;;;14.02;nan;101090.78;5022158;28;19927;-35
2023/01/14 02:58:11;;;;;;;;;;;;;;;14.03;nan;101087.81;5020944;28;20308;-35
2023/01/14 03:00:36;;;;;;;;;;;;;;;14.03;nan;101090.50;5023849;28;19924;-35
2023/01/14 03:03:20;;;;;;;;;;;;;;;14.03;nan;101087.81;5027550;28;19936;-37
2023/01/14 03:05:48;;;;;;;;;;;;;;;14.03;nan;101093.19;5023086;28;19928;-35
2023/01/14 03:08:22;;;;;;;;;;;;;;;14.03;nan;101090.50;5022676;28;19924;-35
2023/01/14 03:10:52;;;;;;;;;;;;;;;13.95;nan;101096.38;5025287;28;19921;-35
2023/01/14 03:13:17;;;;;;;;;;;;;;;14.00;nan;101103.66;5025032;28;19932;-35
2023/01/14 03:15:55;;;;;;;;;;;;;;;14.01;nan;101102.63;5022453;28;19916;-35
2023/01/14 03:18:23;;;;;;;;;;;;;;;14.02;nan;101117.72;5021362;28;20435;-35
2023/01/14 03:20:52;;;;;;;;;;;;;;;14.02;nan;101117.72;5025095;28;19917;-37
2023/01/14 03:23:21;;;;;;;;;;;;;;;14.00;nan;101117.94;5025992;28;20016;-35
2023/01/14 03:25:48;;;;;;;;;;;;;;;14.01;nan;101119.59;5027215;28;20300;-37
2023/01/14 03:28:17;;;;;;;;;;;;;;;14.08;nan;101122.84;5023917;28;19921;-35
2023/01/14 03:30:44;;;;;;;;;;;;;;;14.11;nan;101133.09;5019782;28;19924;-35
2023/01/14 03:33:11;;;;;;;;;;;;;;;14.03;nan;101127.41;5028838;28;19973;-38
2023/01/14 03:35:38;;;;;;;;;;;;;;;14.09;nan;101137.94;5030768;28;19917;-35
2023/01/14 03:38:10;;;;;;;;;;;;;;;14.09;nan;101137.94;5024978;28;20374;-35
2023/01/14 03:40:37;;;;;;;;;;;;;;;14.10;nan;101144.94;5027711;28;20028;-35
2023/01/14 03:43:13;;;;;;;;;;;;;;;14.12;nan;101140.09;5025828;28;20007;-38
2023/01/14 03:45:40;;;;;;;;;;;;;;;14.18;nan;101143.63;5022020;28;19921;-35
2023/01/14 03:48:06;;;;;;;;;;;;;;;14.16;nan;101135.00;5021799;28;19973;-35
2023/01/14 03:50:34;;;;;;;;;;;;;;;14.14;nan;101139.84;5028082;28;19928;-36
2023/01/14 03:53:09;;;;;;;;;;;;;;;14.14;nan;101140.66;5027668;28;20317;-35
2023/01/14 03:55:37;;;;;;;;;;;;;;;14.14;nan;101150.63;5023013;28;19960;-35
2023/01/14 03:58:06;;;;;;;;;;;;;;;14.18;nan;101155.25;5028481;28;20015;-35
2023/01/14 04:00:41;;;;;;;;;;;;;;;14.17;nan;101163.56;5025338;28;19921;-35
2023/01/14 04:03:12;;;;;;;;;;;;;;;14.14;nan;101164.91;5031766;28;20377;-35
2023/01/14 04:05:38;;;;;;;;;;;;;;;14.15;nan;101171.91;5025309;28;20007;-36
2023/01/14 04:08:04;;;;;;;;;;;;;;;14.19;nan;101172.22;5023241;28;20370;-36
2023/01/14 04:10:30;;;;;;;;;;;;;;;14.23;nan;101173.31;5026995;28;19917;-35
2023/01/14 04:15:39;;;;;;;;;;;;;;;14.20;nan;101173.84;5027161;28;19945;-35
2023/01/14 04:18:04;;;;;;;;;;;;;;;14.15;nan;101193.47;5022020;28;19925;-36
2023/01/14 04:20:31;;;;;;;;;;;;;;;14.16;nan;101197.78;5026059;28;19918;-35
2023/01/14 04:22:56;;;;;;;;;;;;;;;14.14;nan;101191.03;5027147;28;20254;-38
2023/01/14 04:25:22;;;;;;;;;;;;;;;14.13;nan;101198.31;5026019;28;19999;-35
2023/01/14 04:27:47;;;;;;;;;;;;;;;14.13;nan;101195.63;5020024;28;19935;-36
2023/01/14 04:30:12;;;;;;;;;;;;;;;14.21;nan;101194.34;5026237;28;19951;-35
2023/01/14 04:32:38;;;;;;;;;;;;;;;14.24;nan;101195.69;5023359;28;19922;-35
2023/01/14 04:35:03;;;;;;;;;;;;;;;14.17;nan;101201.28;5026430;28;19992;-35
2023/01/14 04:37:29;;;;;;;;;;;;;;;14.14;nan;101191.84;5026261;28;19971;-36
2023/01/14 04:39:54;;;;;;;;;;;;;;;14.14;nan;101201.81;5023766;28;19979;-35
2023/01/14 04:42:28;;;;;;;;;;;;;;;14.07;nan;101209.34;5029234;28;19920;-36
2023/01/14 04:44:55;;;;;;;;;;;;;;;14.10;nan;101206.94;5030467;28;19957;-35
2023/01/14 04:47:20;;;;;;;;;;;;;;;14.13;nan;101219.06;5023328;28;20358;-35
2023/01/14 04:49:46;;;;;;;;;;;;;;;14.13;nan;101219.06;5024939;28;19917;-35
2023/01/14 04:52:11;;;;;;;;;;;;;;;14.12;nan;101218.25;5021151;28;19917;-36
2023/01/14 04:54:36;;;;;;;;;;;;;;;14.09;nan;101221.47;5022360;28;19925;-36
2023/01/14 04:57:02;;;;;;;;;;;;;;;14.12;nan;101228.22;5027697;28;20386;-36
2023/01/14 04:59:27;;;;;;;;;;;;;;;14.12;nan;101223.63;5024509;28;19921;-35
2023/01/14 05:01:52;;;;;;;;;;;;;;;14.14;nan;101234.97;5022216;28;20343;-35
2023/01/14 05:04:18;;;;;;;;;;;;;;;14.12;nan;101233.59;5027372;28;20356;-35
2023/01/14 05:06:43;;;;;;;;;;;;;;;14.10;nan;101225.78;5024462;28;19917;-37
2023/01/14 05:09:08;;;;;;;;;;;;;;;14.10;nan;101231.19;5025271;28;20375;-35
2023/01/14 05:11:34;;;;;;;;;;;;;;;14.12;nan;101236.31;5021934;28;20375;-36
2023/01/14 05:13:59;;;;;;;;;;;;;;;14.09;nan;101232.25;5017880;28;20326;-37
2023/01/14 05:16:26;;;;;;;;;;;;;;;14.10;nan;101239.25;5025000;28;19917;-36
2023/01/14 05:18:52;;;;;;;;;;;;;;;14.17;nan;101245.22;5023875;28;20363;-35
2023/01/14 05:21:21;;;;;;;;;;;;;;;14.12;nan;101237.13;5023361;28;19932;-36
2023/01/14 05:23:46;;;;;;;;;;;;;;;14.14;nan;101245.75;5027986;28;19971;-36
2023/01/14 05:26:12;;;;;;;;;;;;;;;14.18;nan;101246.88;5025533;28;19921;-36
2023/01/14 05:28:37;;;;;;;;;;;;;;;14.28;nan;101242.59;5027046;28;19921;-36
2023/01/14 05:31:03;;;;;;;;;;;;;;;14.25;nan;101243.13;5026123;28;20402;-35
2023/01/14 05:33:28;;;;;;;;;;;;;;;14.22;nan;101252.56;5024271;28;19917;-35
2023/01/14 05:35:55;;;;;;;;;;;;;;;14.12;nan;101249.78;5026937;28;19921;-37
2023/01/14 05:38:21;;;;;;;;;;;;;;;14.09;nan;101253.81;5019692;28;19974;-36
2023/01/14 05:40:46;;;;;;;;;;;;;;;14.09;nan;101259.19;5026266;28;19917;-36
2023/01/14 05:46:04;;;;;;;;;;;;;;;14.01;nan;101266.97;5024571;28;19945;-36
2023/01/14 05:48:29;;;;;;;;;;;;;;;14.00;nan;101266.13;5020945;28;20036;-35
2023/01/14 05:50:56;;;;;;;;;;;;;;;13.99;nan;101277.97;5026832;28;20032;-36
2023/01/14 05:53:22;;;;;;;;;;;;;;;13.96;nan;101283.88;5021739;28;20062;-35
2023/01/14 05:55:47;;;;;;;;;;;;;;;13.93;nan;101287.09;5023531;28;20396;-38
2023/01/14 05:58:13;;;;;;;;;;;;;;;13.93;nan;101287.09;5027602;28;19923;-35
2023/01/14 06:06:21;;;;;;;;;;;;;;;13.82;nan;101285.38;5025295;28;20156;-35
2023/01/14 06:08:47;;;;;;;;;;;;;;;13.81;nan;101294.50;5023366;28;19917;-39
2023/01/14 06:11:12;;;;;;;;;;;;;;;13.81;nan;101292.63;5018251;28;19917;-35
2023/01/14 06:13:37;;;;;;;;;;;;;;;13.76;nan;101289.91;5030515;28;20205;-35
2023/01/14 06:16:06;;;;;;;;;;;;;;;13.83;nan;101287.03;5029507;28;19923;-38
2023/01/14 06:18:37;;;;;;;;;;;;;;;13.81;nan;101287.25;5023961;28;20405;-35
2023/01/14 06:21:03;;;;;;;;;;;;;;;13.84;nan;101289.44;5021045;28;19921;-35
2023/01/14 06:23:28;;;;;;;;;;;;;;;13.82;nan;101296.13;5027937;28;19975;-36
2023/01/14 06:25:54;;;;;;;;;;;;;;;13.87;nan;101297.00;5026451;28;19925;-35
2023/01/14 06:28:19;;;;;;;;;;;;;;;13.87;nan;101304.28;5025216;28;19924;-37
2023/01/14 06:30:44;;;;;;;;;;;;;;;13.83;nan;101292.41;5022576;28;19917;-35
2023/01/14 06:33:10;;;;;;;;;;;;;;;13.81;nan;101286.44;5020793;28;19927;-36
2023/01/14 06:35:40;;;;;;;;;;;;;;;13.80;nan;101290.19;5022489;28;20263;-35
2023/01/14 06:38:05;;;;;;;;;;;;;;;13.83;nan;101287.84;5026308;28;19917;-35
2023/01/14 06:40:30;;;;;;;;;;;;;;;13.80;nan;101290.19;5027043;28;20004;-35
2023/01/14 06:42:56;;;;;;;;;;;;;;;13.72;nan;101291.50;5022298;28;19963;-35
2023/01/14 06:45:22;;;;;;;;;;;;;;;13.77;nan;101296.91;5022986;28;19924;-36
2023/01/14 06:47:47;;;;;;;;;;;;;;;13.75;nan;101287.47;5024149;28;19939;-36
2023/01/14 06:50:14;;;;;;;;;;;;;;;13.76;nan;101297.16;5018746;28;19925;-37
2023/01/14 06:52:39;;;;;;;;;;;;;;;13.78;nan;101303.13;5021022;28;19925;-36
2023/01/14 06:55:05;;;;;;;;;;;;;;;13.78;nan;101300.41;5020939;28;19927;-35
2023/01/14 06:57:30;;;;;;;;;;;;;;;13.78;nan;101301.22;5023798;28;19921;-35
2023/01/14 06:59:55;;;;;;;;;;;;;;;13.73;nan;101313.84;5025142;28;20315;-36
2023/01/14 07:02:21;;;;;;;;;;;;;;;13.73;nan;101311.16;5019922;28;20016;-35
2023/01/14 07:04:46;;;;;;;;;;;;;;;13.68;nan;101313.81;5023609;28;19958;-36
2023/01/14 07:07:11;;;;;;;;;;;;;;;13.71;nan;101315.97;5021111;28;19923;-35
2023/01/14 07:09:37;;;;;;;;;;;;;;;13.64;nan;101320.75;5020994;28;19967;-35
2023/01/14 07:12:02;;;;;;;;;;;;;;;13.53;nan;101323.34;5024130;28;19925;-36
2023/01/14 07:14:28;;;;;;;;;;;;;;;13.48;nan;101320.63;5028875;28;19925;-35
2023/01/14 07:16:53;;;;;;;;;;;;;;;13.52;nan;101318.22;5021607;28;19924;-35
2023/01/14 07:19:18;;;;;;;;;;;;;;;13.51;nan;101313.91;5020031;28;21891;-36
2023/01/14 07:21:44;;;;;;;;;;;;;;;13.52;nan;101313.66;5023075;28;19917;-38
2023/01/14 07:24:10;;;;;;;;;;;;;;;13.47;nan;101316.28;5027174;28;19921;-36
2023/01/14 07:26:35;;;;;;;;;;;;;;;13.46;nan;101317.34;5022037;28;20052;-35
2023/01/14 07:29:01;;;;;;;;;;;;;;;13.44;nan;101321.34;5027962;28;20008;-36
2023/01/14 07:31:26;;;;;;;;;;;;;;;13.43;nan;101314.34;5026988;28;19920;-36
2023/01/14 07:33:51;;;;;;;;;;;;;;;13.48;nan;101315.22;5020476;28;20083;-36
2023/01/14 07:36:17;;;;;;;;;;;;;;;13.51;nan;101321.97;5027220;28;20338;-36
2023/01/14 07:38:42;;;;;;;;;;;;;;;13.49;nan;101319.53;5025915;28;19921;-35
2023/01/14 07:41:08;;;;;;;;;;;;;;;13.50;nan;101331.94;5025600;28;19926;-35
2023/01/14 07:43:33;;;;;;;;;;;;;;;13.44;nan;101327.53;5028353;28;19932;-35
2023/01/14 07:45:59;;;;;;;;;;;;;;;13.41;nan;101330.75;5027421;28;19917;-38
2023/01/14 07:48:24;;;;;;;;;;;;;;;13.46;nan;101330.78;5023872;28;19918;-36
2023/01/14 07:50:50;;;;;;;;;;;;;;;13.50;nan;101321.16;5026766;28;19929;-35
2023/01/14 07:53:15;;;;;;;;;;;;;;;13.47;nan;101327.06;5025176;28;19917;-35
2023/01/14 07:55:40;;;;;;;;;;;;;;;13.44;nan;101332.94;5025774;28;19939;-35
2023/01/14 07:58:06;;;;;;;;;;;;;;;13.39;nan;101327.50;5021069;28;19925;-35
2023/01/14 08:00:31;;;;;;;;;;;;;;;13.44;nan;101321.34;5027653;28;19963;-33
2023/01/14 08:02:56;;;;;;;;;;;;;;;13.52;nan;101324.41;5023097;28;19932;-32
2023/01/14 08:05:22;;;;;;;;;;;;;;;13.54;nan;101322.28;5022579;28;20452;-32
2023/01/14 08:07:47;;;;;;;;;;;;;;;13.53;nan;101326.03;5027940;28;19963;-32
2023/01/14 08:10:12;;;;;;;;;;;;;;;13.55;nan;101328.47;5023676;28;20012;-33
2023/01/14 08:12:38;;;;;;;;;;;;;;;13.55;nan;101318.53;5027309;28;19921;-32
2023/01/14 08:15:04;;;;;;;;;;;;;;;13.54;nan;101319.59;5024538;28;19932;-32
2023/01/14 08:17:30;;;;;;;;;;;;;;;13.52;nan;101323.59;5025678;28;20011;-33
2023/01/14 08:19:55;;;;;;;;;;;;;;;13.52;nan;101332.50;5030430;28;20013;-32
2023/01/14 08:22:20;;;;;;;;;;;;;;;13.49;nan;101327.63;5027483;28;19931;-33
2023/01/14 08:24:46;;;;;;;;;;;;;;;13.52;nan;101335.19;5024904;28;19928;-33
2023/01/14 08:27:11;;;;;;;;;;;;;;;13.51;nan;101324.66;5021124;28;19918;-32
2023/01/14 08:29:36;;;;;;;;;;;;;;;13.57;nan;101335.22;5028752;28;19917;-33
2023/01/14 08:32:03;;;;;;;;;;;;;;;13.60;nan;101325.81;5026430;28;20344;-32
2023/01/14 08:34:28;;;;;;;;;;;;;;;13.61;nan;101332.84;5023326;28;19924;-33
2023/01/14 08:36:54;;;;;;;;;;;;;;;13.57;nan;101337.91;5019725;28;20314;-33
2023/01/14 08:39:19;;;;;;;;;;;;;;;13.66;nan;101334.78;5019357;28;19925;-32
2023/01/14 08:41:44;;;;;;;;;;;;;;;13.64;nan;101331.50;5020963;28;19964;-32
2023/01/14 08:44:10;;;;;;;;;;;;;;;13.67;nan;101339.91;5021191;28;20363;-32
2023/01/14 08:46:35;;;;;;;;;;;;;;;13.68;nan;101332.66;5027418;28;19971;-32
2023/01/14 08:49:01;;;;;;;;;;;;;;;13.72;nan;101325.69;5024003;28;20896;-32
2023/01/14 08:51:28;;;;;;;;;;;;;;;13.70;nan;101327.81;5021323;28;19960;-32
2023/01/14 08:53:57;;;;;;;;;;;;;;;13.68;nan;101322.69;5019001;28;19967;-32
2023/01/14 08:56:22;;;;;;;;;;;;;;;13.75;nan;101328.69;5025455;28;19921;-32
2023/01/14 08:58:47;;;;;;;;;;;;;;;13.79;nan;101331.66;5024595;28;19944;-32
2023/01/14 09:01:13;;;;;;;;;;;;;;;13.83;nan;101335.50;5020510;28;19983;-32
2023/01/14 09:03:40;;;;;;;;;;;;;;;13.83;nan;101336.31;5025576;28;19925;-32
2023/01/14 09:06:10;;;;;;;;;;;;;;;13.80;nan;101341.38;5017798;28;19924;-32
2023/01/14 09:17:04;;;;;;;;;;;;;;;13.77;nan;101356.16;5020221;28;20360;-32
2023/01/14 09:17:06;;;;;;;;;;;;;;;13.83;nan;101359.75;5023487;28;19928;-32
2023/01/14 09:19:43;;;;;;;;;;;;;;;13.86;nan;101361.91;5024801;28;19932;-32
2023/01/14 09:22:10;;;;;;;;;;;;;;;13.87;nan;101366.25;5020501;28;19932;-32
2023/01/14 09:24:36;;;;;;;;;;;;;;;13.86;nan;101356.53;5019048;28;19925;-32
2023/01/14 09:27:01;;;;;;;;;;;;;;;13.87;nan;101363.53;5024779;28;19921;-32
2023/01/14 09:29:26;;;;;;;;;;;;;;;13.88;nan;101365.16;5024116;28;19928;-32
2023/01/14 09:31:52;;;;;;;;;;;;;;;13.89;nan;101364.91;5020929;28;19964;-32
2023/01/14 09:34:18;;;;;;;;;;;;;;;13.93;nan;101372.47;5024205;28;19956;-32
2023/01/14 09:36:43;;;;;;;;;;;;;;;13.90;nan;101371.09;5021916;28;20324;-32
2023/01/14 09:39:08;;;;;;;;;;;;;;;13.90;nan;101365.72;5024069;28;19921;-33
2023/01/14 09:41:36;;;;;;;;;;;;;;;13.93;nan;101367.91;5023473;28;20348;-32
2023/01/14 09:44:04;;;;;;;;;;;;;;;13.95;nan;101364.94;5022767;28;19921;-32
2023/01/14 09:46:31;;;;;;;;;;;;;;;14.07;nan;101360.22;5019751;28;20005;-32
2023/01/14 09:49:00;;;;;;;;;;;;;;;14.08;nan;101359.97;5022464;28;20383;-32
2023/01/14 09:51:46;;;;;;;;;;;;;;;14.12;nan;101358.38;5023882;28;20075;-32
2023/01/14 09:54:12;;;;;;;;;;;;;;;14.07;nan;101357.53;5018428;28;19927;-32
2023/01/14 09:56:42;;;;;;;;;;;;;;;13.98;nan;101349.09;5016656;28;19921;-32
2023/01/14 09:59:11;;;;;;;;;;;;;;;13.99;nan;101350.72;5015871;28;19927;-32
2023/01/14 10:01:36;;;;;;;;;;;;;;;13.96;nan;101343.13;5018626;28;19925;-32
2023/01/14 10:04:01;;;;;;;;;;;;;;;13.98;nan;101338.31;5020714;28;19921;-33
2023/01/14 10:06:27;;;;;;;;;;;;;;;13.96;nan;101335.06;5021796;28;19928;-32
2023/01/14 10:09:18;;;;;;;;;;;;;;;13.97;nan;101330.47;5016039;28;19928;-33
2023/01/14 10:11:45;;;;;;;;;;;;;;;14.01;nan;101332.44;5017762;28;19921;-32
2023/01/14 10:14:10;;;;;;;;;;;;;;;14.04;nan;101331.09;5023292;28;19926;-32
2023/01/14 10:16:43;;;;;;;;;;;;;;;14.07;nan;101333.28;5017243;28;20356;-32
2023/01/14 10:19:09;;;;;;;;;;;;;;;14.17;nan;101328.75;5024502;28;20283;-33
2023/01/14 10:21:41;;;;;;;;;;;;;;;14.34;nan;101317.03;5022144;28;19917;-33
2023/01/14 10:24:11;;;;;;;;;;;;;;;14.52;nan;101316.63;5023511;28;19929;-33
2023/01/14 10:26:38;;;;;;;;;;;;;;;14.62;nan;101318.59;5021108;28;19921;-32
2023/01/14 10:29:11;;;;;;;;;;;;;;;14.59;nan;101306.47;5019194;28;19917;-33
2023/01/14 10:31:38;;;;;;;;;;;;;;;14.66;nan;101301.63;5023066;28;19921;-33
2023/01/14 10:34:03;;;;;;;;;;;;;;;14.74;nan;101289.56;5022830;28;20170;-32
2023/01/14 10:36:30;;;;;;;;;;;;;;;14.74;nan;101292.25;5024791;28;19975;-33
2023/01/14 10:38:56;;;;;;;;;;;;;;;14.73;nan;101296.84;5025445;28;19921;-32
2023/01/14 10:41:48;;;;;;;;;;;;;;;14.72;nan;101268.25;5028015;28;19951;-33
2023/01/14 10:44:30;;;;;;;;;;;;;;;14.68;nan;101275.22;5029476;28;20016;-33
2023/01/14 10:47:01;;;;;;;;;;;;;;;14.65;nan;101270.34;5019276;28;19921;-33
2023/01/14 10:49:45;;;;;;;;;;;;;;;14.72;nan;101270.09;5028899;28;20394;-33
2023/01/14 10:52:29;;;;;;;;;;;;;;;14.77;nan;101270.13;5026898;28;19963;-33
2023/01/14 10:55:01;;;;;;;;;;;;;;;14.72;nan;101262.84;5026106;28;19943;-32
2023/01/14 10:57:31;;;;;;;;;;;;;;;14.80;nan;101259.63;5027024;28;19917;-32
2023/01/14 10:59:57;;;;;;;;;;;;;;;14.80;nan;101261.50;5025713;28;19975;-33
2023/01/14 11:02:22;;;;;;;;;;;;;;;14.77;nan;101248.56;5026040;28;20383;-33
2023/01/14 11:04:50;;;;;;;;;;;;;;;14.78;nan;101245.59;5021201;28;20214;-33
2023/01/14 11:07:25;;;;;;;;;;;;;;;14.84;nan;101234.81;5026982;28;20366;-33
2023/01/14 11:09:51;;;;;;;;;;;;;;;14.85;nan;101233.75;5024586;28;19932;-33
2023/01/14 11:12:27;;;;;;;;;;;;;;;14.88;nan;101235.91;5024265;28;19925;-33
2023/01/14 11:14:53;;;;;;;;;;;;;;;14.90;nan;101225.66;5026291;28;19989;-32
2023/01/14 11:17:26;;;;;;;;;;;;;;;14.91;nan;101219.22;5032316;28;20026;-33
2023/01/14 11:19:51;;;;;;;;;;;;;;;14.91;nan;101227.31;5024527;28;20004;-32
2023/01/14 11:22:17;;;;;;;;;;;;;;;14.87;nan;101215.41;5024552;28;20227;-32
2023/01/14 11:24:44;;;;;;;;;;;;;;;14.89;nan;101208.66;5028493;28;20251;-33
2023/01/14 11:27:23;;;;;;;;;;;;;;;14.89;nan;101205.97;5026812;28;19963;-32
2023/01/14 11:29:56;;;;;;;;;;;;;;;14.84;nan;101199.75;5020799;28;19921;-32
2023/01/14 11:32:24;;;;;;;;;;;;;;;14.81;nan;101188.41;5029442;28;19952;-33
2023/01/14 11:34:51;;;;;;;;;;;;;;;14.84;nan;101199.75;5027012;28;19924;-32
2023/01/14 11:37:21;;;;;;;;;;;;;;;14.81;nan;101201.09;5026878;28;19960;-33
2023/01/14 11:39:50;;;;;;;;;;;;;;;14.86;nan;101186.78;5024301;28;19948;-33
2023/01/14 11:42:21;;;;;;;;;;;;;;;14.89;nan;101186.25;5023047;28;20377;-32
2023/01/14 11:44:56;;;;;;;;;;;;;;;14.90;nan;101177.94;5023687;28;19925;-33
2023/01/14 11:47:22;;;;;;;;;;;;;;;14.93;nan;101174.69;5019991;28;21348;-33
2023/01/14 11:49:48;;;;;;;;;;;;;;;14.95;nan;101169.03;5022096;28;19925;-33
2023/01/14 11:52:20;;;;;;;;;;;;;;;14.95;nan;101161.75;5025055;28;19917;-33
2023/01/14 11:54:47;;;;;;;;;;;;;;;14.89;nan;101159.28;5029128;28;19979;-33
2023/01/14 11:57:17;;;;;;;;;;;;;;;14.85;nan;101145.53;5024226;28;19972;-33
2023/01/14 11:59:43;;;;;;;;;;;;;;;14.96;nan;101147.19;5023663;28;20409;-33
2023/01/14 12:02:14;;;;;;;;;;;;;;;14.93;nan;101142.31;5021519;28;20011;-33
2023/01/14 12:04:44;;;;;;;;;;;;;;;14.89;nan;101127.72;5019195;28;20057;-33
2023/01/14 12:07:17;;;;;;;;;;;;;;;14.89;nan;101126.91;5017936;28;19921;-33
2023/01/14 12:09:54;;;;;;;;;;;;;;;14.91;nan;101122.91;5022132;28;19925;-32
2023/01/14 12:12:24;;;;;;;;;;;;;;;14.89;nan;101116.94;5028224;28;19940;-33
2023/01/14 12:17:38;;;;;;;;;;;;;;;14.82;nan;101111.00;5022020;28;19932;-32
2023/01/14 12:20:12;;;;;;;;;;;;;;;14.77;nan;101108.28;5022278;28;19925;-32
2023/01/14 12:22:49;;;;;;;;;;;;;;;14.76;nan;101093.19;5019341;28;19927;-32
2023/01/14 12:25:28;;;;;;;;;;;;;;;14.68;nan;101088.31;5021221;28;19933;-32
2023/01/14 12:27:56;;;;;;;;;;;;;;;14.72;nan;101076.75;5013686;28;19983;-32
2023/01/14 12:30:25;;;;;;;;;;;;;;;14.81;nan;101068.91;5017694;28;19921;-32
2023/01/14 12:33:08;;;;;;;;;;;;;;;14.82;nan;101062.44;5019075;28;19921;-32
2023/01/14 12:35:47;;;;;;;;;;;;;;;14.82;nan;101062.44;5018585;28;19943;-32
2023/01/14 12:47:00;;;;;;;;;;;;;;;14.89;nan;101035.19;5020726;28;19970;-33
2023/01/14 12:49:26;;;;;;;;;;;;;;;14.88;nan;101025.47;5019450;28;20016;-32
2023/01/14 12:51:51;;;;;;;;;;;;;;;14.87;nan;101037.34;5023703;28;19920;-33
2023/01/14 12:54:23;;;;;;;;;;;;;;;14.84;nan;101027.09;5020856;28;20602;-32
2023/01/14 12:56:50;;;;;;;;;;;;;;;14.88;nan;101034.38;5023608;28;19937;-33
2023/01/14 12:59:43;;;;;;;;;;;;;;;14.79;nan;101020.63;5018321;28;19928;-32
2023/01/14 13:02:21;;;;;;;;;;;;;;;14.82;nan;101014.69;5015586;28;19932;-33
2023/01/14 13:04:52;;;;;;;;;;;;;;;14.76;nan;100998.78;5015465;28;19937;-33
2023/01/14 13:07:28;;;;;;;;;;;;;;;14.70;nan;100995.25;5018144;28;20023;-33
2023/01/14 13:09:55;;;;;;;;;;;;;;;14.72;nan;100990.44;5018794;28;19953;-33
2023/01/14 13:12:41;;;;;;;;;;;;;;;14.72;nan;100989.59;5022948;28;19952;-33
2023/01/14 13:15:27;;;;;;;;;;;;;;;14.69;nan;100972.06;5023224;28;19925;-32
2023/01/14 13:17:52;;;;;;;;;;;;;;;14.76;nan;100977.22;5020488;28;19924;-32
2023/01/14 13:20:30;;;;;;;;;;;;;;;14.74;nan;100969.38;5023345;28;20422;-32
2023/01/14 13:22:56;;;;;;;;;;;;;;;14.67;nan;100954.53;5022605;28;19924;-33
2023/01/14 13:25:33;;;;;;;;;;;;;;;14.61;nan;100950.25;5016948;28;19979;-32
2023/01/14 13:28:22;;;;;;;;;;;;;;;14.64;nan;100950.50;5017985;28;20377;-32
2023/01/14 13:31:01;;;;;;;;;;;;;;;14.59;nan;100944.31;5012485;28;19921;-33
2023/01/14 13:33:27;;;;;;;;;;;;;;;14.51;nan;100945.63;5021852;28;19921;-32
2023/01/14 13:36:11;;;;;;;;;;;;;;;14.45;nan;100939.44;5023471;28;19921;-32